Time;durP1;ratioP1;P1;durP2;ratioP2;P2;SDS_P1;SDS_P2;PMS_P1;PMS_P2;Temp;Humidity;BMP_temperature;BMP_pressure;BME280_temperature;BME280_humidity;BME280_pressure;Samples;Min_cycle;Max_cycle;Signal;HPM_P1;HPM_P2
2022/10/21 00:02:04;;;;;;;7.93;4.47;;;;;;;7.60;89.36;97913.53;6232222;28;20234;-39
2022/10/21 00:05:06;;;;;;;6.00;4.43;;;;;;;7.55;89.13;97915.63;6229257;28;20271;-39
2022/10/21 00:08:09;;;;;;;5.47;3.77;;;;;;;7.53;89.21;97920.13;6229860;28;20316;-39
2022/10/21 00:11:11;;;;;;;6.70;4.00;;;;;;;7.48;89.92;97914.34;6230347;28;20227;-39
2022/10/21 00:14:13;;;;;;;6.03;4.07;;;;;;;7.45;89.98;97898.78;6230278;28;20663;-39
2022/10/21 00:17:15;;;;;;;5.23;3.83;;;;;;;7.39;90.05;97902.59;6231374;28;20632;-39
2022/10/21 00:20:17;;;;;;;5.40;3.77;;;;;;;7.37;89.85;97897.50;6228787;28;20800;-39
2022/10/21 00:23:19;;;;;;;5.17;3.60;;;;;;;7.31;89.79;97900.47;6229958;28;20232;-39
2022/10/21 00:26:21;;;;;;;5.67;4.40;;;;;;;7.27;90.34;97898.16;6230998;28;20227;-39
2022/10/21 00:29:24;;;;;;;6.83;4.57;;;;;;;7.22;90.09;97916.81;6229237;28;20776;-39
2022/10/21 00:32:26;;;;;;;5.10;4.27;;;;;;;7.19;90.36;97906.50;6231160;28;20780;-39
2022/10/21 00:35:28;;;;;;;9.23;3.77;;;;;;;7.20;90.80;97897.69;6230164;28;20308;-39
2022/10/21 00:38:31;;;;;;;7.90;3.93;;;;;;;7.19;90.71;97896.00;6229569;28;20773;-39
2022/10/21 00:41:33;;;;;;;6.97;5.73;;;;;;;7.26;90.96;97892.06;6230153;28;20605;-39
2022/10/21 00:44:36;;;;;;;6.17;4.60;;;;;;;7.42;89.84;97894.53;6230894;28;20235;-40
2022/10/21 00:48:09;;;;;;;5.80;4.07;;;;;;;7.38;89.59;97883.41;6231194;28;20232;-39
2022/10/21 00:51:15;;;;;;;6.87;4.13;;;;;;;7.33;89.72;97882.00;6228738;28;20234;-39
2022/10/21 00:54:19;;;;;;;5.37;4.20;;;;;;;7.31;89.79;97876.00;6229862;28;20604;-39
2022/10/21 00:57:24;;;;;;;8.93;4.40;;;;;;;7.32;89.99;97867.19;6230436;28;20249;-39
2022/10/21 01:00:26;;;;;;;5.47;4.13;;;;;;;7.33;89.96;97871.50;6230399;28;20340;-39
2022/10/21 01:03:31;;;;;;;6.27;5.00;;;;;;;7.32;90.33;97864.56;6229730;28;20288;-40
2022/10/21 01:06:35;;;;;;;6.57;4.60;;;;;;;7.31;90.51;97855.00;6229442;28;20235;-40
2022/10/21 01:09:37;;;;;;;10.80;5.07;;;;;;;7.27;90.64;97854.38;6229574;28;20240;-39
2022/10/21 01:12:48;;;;;;;9.03;4.87;;;;;;;7.25;91.02;97842.28;6230434;28;20239;-39
2022/10/21 01:16:15;;;;;;;5.70;4.00;;;;;;;7.20;90.90;97839.94;6229115;28;20235;-40
2022/10/21 01:19:55;;;;;;;6.13;4.00;;;;;;;7.16;91.12;97841.09;6207666;28;20690;-40
2022/10/21 01:23:27;;;;;;;5.93;3.97;;;;;;;7.08;91.52;97838.13;6206067;28;20773;-39
2022/10/21 01:27:01;;;;;;;7.67;4.17;;;;;;;7.00;91.62;97828.09;6229154;28;20238;-39
2022/10/21 01:30:13;;;;;;;4.43;4.03;;;;;;;6.84;91.59;97843.13;6229785;28;20594;-39
2022/10/21 01:33:33;;;;;;;6.93;4.50;;;;;;;6.80;91.48;97835.53;6232286;28;20353;-39
2022/10/21 01:36:55;;;;;;;5.93;4.43;;;;;;;6.68;91.45;97833.72;6230278;28;20255;-40
2022/10/21 01:40:17;;;;;;;4.93;3.80;;;;;;;6.64;91.76;97833.88;6227750;28;20328;-40
2022/10/21 01:43:28;;;;;;;9.10;4.37;;;;;;;6.59;91.62;97827.22;6229056;28;20275;-41
2022/10/21 01:46:37;;;;;;;6.20;4.37;;;;;;;6.56;92.08;97830.06;6229069;28;20242;-41
2022/10/21 01:50:09;;;;;;;8.40;5.13;;;;;;;6.54;92.07;97832.78;6231189;28;20606;-43
2022/10/21 01:53:14;;;;;;;6.93;4.43;;;;;;;6.53;92.15;97822.38;6234334;28;20235;-42
2022/10/21 01:56:18;;;;;;;5.13;4.00;;;;;;;6.51;92.35;97821.63;6234396;28;20234;-41
2022/10/21 01:59:24;;;;;;;5.27;4.23;;;;;;;6.45;92.35;97812.38;6234087;28;20238;-41
2022/10/21 02:02:32;;;;;;;7.47;4.83;;;;;;;6.40;92.76;97805.69;6234961;28;20234;-42
2022/10/21 02:05:35;;;;;;;10.20;4.67;;;;;;;6.30;92.64;97814.13;6234955;28;20735;-42
2022/10/21 02:08:37;;;;;;;7.47;5.03;;;;;;;6.28;92.73;97815.19;6235264;28;20304;-41
2022/10/21 02:11:42;;;;;;;7.07;4.27;;;;;;;6.23;92.72;97810.22;6234595;28;20233;-41
2022/10/21 02:14:50;;;;;;;5.50;4.40;;;;;;;6.18;92.82;97824.53;6234261;28;20318;-42
2022/10/21 02:18:04;;;;;;;5.83;4.20;;;;;;;6.15;93.42;97819.47;6233829;28;20232;-42
2022/10/21 02:21:16;;;;;;;6.03;4.73;;;;;;;6.09;93.37;97822.47;6233076;28;20231;-41
2022/10/21 02:24:32;;;;;;;5.57;4.83;;;;;;;6.03;93.51;97825.44;6209417;28;20220;-42
2022/10/21 02:27:34;;;;;;;6.70;4.60;;;;;;;6.01;93.16;97825.53;6231241;28;20376;-42
2022/10/21 02:31:13;;;;;;;5.73;4.47;;;;;;;5.96;93.33;97824.13;6234660;28;20245;-41
2022/10/21 02:34:15;;;;;;;5.33;4.60;;;;;;;5.90;93.43;97823.53;6203021;28;20245;-42
2022/10/21 02:37:20;;;;;;;6.43;4.67;;;;;;;5.85;93.63;97824.72;6233450;28;20637;-41
2022/10/21 02:40:36;;;;;;;7.40;4.87;;;;;;;5.85;93.81;97822.97;6233386;28;20324;-42
2022/10/21 02:43:44;;;;;;;6.10;4.67;;;;;;;5.80;93.76;97822.38;6233524;28;20239;-41
2022/10/21 02:46:47;;;;;;;6.20;4.90;;;;;;;5.78;93.61;97828.66;6233667;28;20266;-41
2022/10/21 02:49:49;;;;;;;5.67;4.67;;;;;;;5.75;94.07;97831.44;6232163;28;20241;-42
2022/10/21 02:52:51;;;;;;;5.63;4.83;;;;;;;5.71;93.78;97829.91;6233585;28;20596;-42
2022/10/21 02:55:53;;;;;;;6.70;5.13;;;;;;;5.67;93.75;97847.59;6232565;28;20245;-41
2022/10/21 02:58:55;;;;;;;7.13;5.33;;;;;;;5.66;93.97;97840.69;6233518;28;20297;-42
2022/10/21 03:01:57;;;;;;;8.17;4.83;;;;;;;5.63;94.32;97847.84;6232046;28;20240;-41
2022/10/21 03:04:59;;;;;;;4.93;4.27;;;;;;;5.60;94.73;97848.88;6232660;28;20261;-41
2022/10/21 03:08:01;;;;;;;8.83;5.23;;;;;;;5.61;94.30;97849.72;6232504;28;20237;-41
2022/10/21 03:11:04;;;;;;;6.53;4.97;;;;;;;5.59;94.75;97857.66;6231710;28;20697;-41
2022/10/21 03:14:06;;;;;;;5.77;5.13;;;;;;;5.58;93.96;97876.94;6232661;28;20228;-41
2022/10/21 03:17:08;;;;;;;9.17;5.63;;;;;;;5.54;94.31;97884.09;6231338;28;20222;-41
2022/10/21 03:20:10;;;;;;;8.97;6.10;;;;;;;5.52;94.89;97882.50;6231867;28;20606;-42
2022/10/21 03:23:12;;;;;;;9.30;5.77;;;;;;;5.50;94.46;97889.59;6231654;28;20842;-41
2022/10/21 03:26:14;;;;;;;8.83;4.90;;;;;;;5.48;95.22;97894.94;6232406;28;20236;-41
2022/10/21 03:29:16;;;;;;;7.83;5.23;;;;;;;5.52;95.06;97890.34;6231937;28;20328;-42
2022/10/21 03:32:18;;;;;;;7.67;5.47;;;;;;;5.55;95.36;97882.34;6231470;28;20323;-41
2022/10/21 03:35:20;;;;;;;6.00;5.40;;;;;;;5.55;95.75;97892.81;6232195;28;20268;-41
2022/10/21 03:38:22;;;;;;;9.37;5.70;;;;;;;5.57;95.93;97890.94;6232328;28;20228;-41
2022/10/21 03:41:24;;;;;;;6.50;4.70;;;;;;;5.56;95.93;97900.56;6237209;28;20362;-41
2022/10/21 03:44:26;;;;;;;5.70;4.57;;;;;;;5.56;95.62;97897.97;6235759;28;20230;-41
2022/10/21 03:47:28;;;;;;;6.07;4.93;;;;;;;5.51;96.23;97906.97;6236470;28;20311;-41
2022/10/21 03:50:30;;;;;;;7.60;5.77;;;;;;;5.50;95.64;97914.00;6235905;28;20243;-41
2022/10/21 03:53:32;;;;;;;6.27;5.33;;;;;;;5.50;95.66;97924.47;6237377;28;20315;-41
2022/10/21 03:56:49;;;;;;;5.80;4.97;;;;;;;5.53;95.78;97932.16;6231789;28;20252;-41
2022/10/21 03:59:51;;;;;;;6.70;5.00;;;;;;;5.56;95.99;97926.75;6231765;28;20234;-42
2022/10/21 04:02:53;;;;;;;8.90;5.90;;;;;;;5.55;95.55;97926.84;6231678;28;20230;-41
2022/10/21 04:05:55;;;;;;;8.00;5.43;;;;;;;5.54;95.50;97933.84;6232120;28;20228;-41
2022/10/21 04:08:57;;;;;;;6.37;5.13;;;;;;;5.54;95.88;97925.16;6231314;28;20228;-41
2022/10/21 04:12:00;;;;;;;6.57;5.83;;;;;;;5.49;96.18;97917.53;6230401;28;20229;-42
2022/10/21 04:15:03;;;;;;;7.40;5.73;;;;;;;5.46;95.93;97924.75;6231978;28;20217;-41
2022/10/21 04:18:06;;;;;;;6.13;5.37;;;;;;;5.39;95.96;97921.59;6230786;28;20698;-42
2022/10/21 04:21:08;;;;;;;6.60;5.33;;;;;;;5.34;96.60;97914.94;6230612;28;20253;-42
2022/10/21 04:24:10;;;;;;;7.97;5.37;;;;;;;5.31;95.96;97925.56;6225488;28;20693;-41
2022/10/21 04:27:12;;;;;;;7.00;5.23;;;;;;;5.23;96.51;97927.78;6221473;28;20803;-41
2022/10/21 04:30:15;;;;;;;7.37;5.50;;;;;;;5.16;96.16;97920.28;6229869;28;20381;-41
2022/10/21 04:33:17;;;;;;;7.17;5.43;;;;;;;5.10;96.55;97917.13;6231182;28;20305;-41
2022/10/21 04:36:19;;;;;;;7.57;5.17;;;;;;;5.05;96.56;97909.53;6230853;28;20226;-42
2022/10/21 04:39:21;;;;;;;6.40;5.17;;;;;;;4.98;96.96;97913.44;6231233;28;20781;-43
2022/10/21 04:42:23;;;;;;;5.70;5.10;;;;;;;4.96;96.28;97914.44;6229215;28;20230;-42
2022/10/21 04:45:25;;;;;;;6.90;5.00;;;;;;;4.97;97.22;97910.88;6231070;28;20250;-42
2022/10/21 04:48:27;;;;;;;8.37;5.40;;;;;;;4.91;96.98;97912.06;6230695;28;20576;-42
2022/10/21 04:51:29;;;;;;;6.07;5.13;;;;;;;4.83;96.87;97907.25;6230704;28;20275;-42
2022/10/21 04:54:32;;;;;;;6.90;4.90;;;;;;;4.79;96.65;97899.66;6230346;28;20354;-42
2022/10/21 04:57:34;;;;;;;7.50;5.37;;;;;;;4.74;96.56;97899.88;6228088;28;20666;-43
2022/10/21 05:00:36;;;;;;;5.67;5.00;;;;;;;4.72;97.34;97900.88;6231005;28;20323;-42
2022/10/21 05:03:38;;;;;;;6.77;5.23;;;;;;;4.70;96.74;97900.13;6230178;28;20591;-41
2022/10/21 05:06:40;;;;;;;6.97;5.80;;;;;;;4.67;97.11;97905.53;6230572;28;20242;-41
2022/10/21 05:09:42;;;;;;;6.27;5.47;;;;;;;4.64;97.16;97900.47;6230461;28;20237;-42
2022/10/21 05:12:45;;;;;;;8.50;5.27;;;;;;;4.61;96.64;97893.63;6229842;28;20230;-41
2022/10/21 05:15:47;;;;;;;7.33;5.80;;;;;;;4.59;96.59;97892.84;6229515;28;20231;-41
2022/10/21 05:18:49;;;;;;;7.57;5.80;;;;;;;4.57;96.06;97894.72;6229671;28;20335;-42
2022/10/21 05:21:51;;;;;;;8.13;5.57;;;;;;;4.54;96.08;97896.63;6229571;28;20219;-42
2022/10/21 05:24:53;;;;;;;8.03;5.43;;;;;;;4.53;96.41;97889.72;6228898;28;20556;-41
2022/10/21 05:27:55;;;;;;;8.10;5.63;;;;;;;4.47;96.60;97896.13;6229820;28;20232;-42
2022/10/21 05:30:57;;;;;;;7.23;5.70;;;;;;;4.45;96.73;97885.75;6229828;28;20382;-42
2022/10/21 05:33:59;;;;;;;6.53;4.70;;;;;;;4.43;96.58;97890.22;6230275;28;20239;-42
2022/10/21 05:37:01;;;;;;;6.87;5.37;;;;;;;4.45;96.42;97885.75;6230507;28;20266;-42
2022/10/21 05:40:04;;;;;;;8.80;5.17;;;;;;;4.47;96.16;97884.84;6229529;28;20249;-42
2022/10/21 05:43:06;;;;;;;6.50;5.23;;;;;;;4.44;96.75;97881.44;6228751;28;20649;-41
2022/10/21 05:46:08;;;;;;;6.20;5.07;;;;;;;4.43;96.10;97878.91;6230612;28;20326;-42
2022/10/21 05:49:11;;;;;;;6.60;5.33;;;;;;;4.40;96.39;97879.91;6228288;28;20621;-42
2022/10/21 05:52:14;;;;;;;6.27;4.60;;;;;;;4.42;96.60;97887.66;6228592;28;20235;-42
2022/10/21 05:55:16;;;;;;;8.33;5.47;;;;;;;4.47;96.22;97884.84;6228277;28;20224;-42
2022/10/21 05:58:18;;;;;;;6.00;4.97;;;;;;;4.51;96.11;97886.34;6229480;28;20378;-42
2022/10/21 06:01:20;;;;;;;6.23;5.47;;;;;;;4.56;95.74;97890.41;6229959;28;20250;-42
2022/10/21 06:04:22;;;;;;;7.23;5.60;;;;;;;4.64;95.87;97887.38;6227342;28;20605;-41
2022/10/21 06:07:24;;;;;;;9.03;5.83;;;;;;;4.73;95.60;97886.91;6228794;28;20378;-42
2022/10/21 06:10:26;;;;;;;7.17;5.77;;;;;;;4.74;95.29;97888.59;6228327;28;20247;-41
2022/10/21 06:13:31;;;;;;;7.70;5.20;;;;;;;4.75;95.32;97880.66;6228726;28;20418;-41
2022/10/21 06:16:35;;;;;;;5.90;4.70;;;;;;;4.86;95.09;97892.31;6227367;28;20613;-42
2022/10/21 06:19:37;;;;;;;8.33;6.27;;;;;;;4.97;95.45;97885.59;6228576;28;20696;-41
2022/10/21 06:22:39;;;;;;;10.50;6.23;;;;;;;5.09;95.61;97889.31;6228373;28;20584;-41
2022/10/21 06:25:43;;;;;;;8.87;5.77;;;;;;;5.18;94.77;97887.03;6228259;28;20717;-41
2022/10/21 06:28:45;;;;;;;7.17;5.73;;;;;;;5.32;95.21;97891.47;6228624;28;20295;-41
2022/10/21 06:31:47;;;;;;;6.37;5.73;;;;;;;5.40;94.59;97899.72;6229155;28;20241;-41
2022/10/21 06:34:49;;;;;;;7.40;5.87;;;;;;;5.48;94.74;97891.47;6228807;28;20237;-42
2022/10/21 06:37:51;;;;;;;7.77;6.20;;;;;;;5.62;94.42;97898.53;6232156;28;20582;-41
2022/10/21 06:41:03;;;;;;;7.30;6.00;;;;;;;5.75;94.42;97889.91;6232918;28;20754;-42
2022/10/21 06:44:12;;;;;;;8.57;6.53;;;;;;;5.89;94.24;97882.09;6232854;28;20756;-41
2022/10/21 06:47:15;;;;;;;6.60;5.90;;;;;;;6.07;93.71;97889.84;6232965;28;20229;-41
2022/10/21 06:50:18;;;;;;;6.50;5.50;;;;;;;6.20;93.19;97875.91;6233527;28;20760;-42
2022/10/21 06:53:20;;;;;;;8.90;6.17;;;;;;;6.35;92.40;97865.44;6233139;28;20235;-41
2022/10/21 06:56:23;;;;;;;7.00;5.67;;;;;;;6.48;92.46;97869.03;6232379;28;20262;-41
2022/10/21 06:59:25;;;;;;;7.73;5.90;;;;;;;6.60;92.40;97861.22;6233470;28;20249;-41
2022/10/21 07:02:27;;;;;;;6.33;5.27;;;;;;;6.67;92.05;97853.84;6232113;28;20235;-41
2022/10/21 07:05:29;;;;;;;9.23;6.37;;;;;;;6.68;91.41;97865.19;6232596;28;20228;-41
2022/10/21 07:08:32;;;;;;;8.20;6.27;;;;;;;6.72;91.37;97874.53;6232034;28;20770;-42
2022/10/21 07:11:54;;;;;;;8.37;6.60;;;;;;;6.81;90.94;97861.69;6232346;28;20671;-41
2022/10/21 07:14:56;;;;;;;11.43;6.53;;;;;;;6.90;90.92;97863.72;6231906;28;20338;-41
2022/10/21 07:17:59;;;;;;;9.47;6.70;;;;;;;6.97;90.72;97864.19;6230511;28;20230;-42
2022/10/21 07:21:07;;;;;;;8.07;5.63;;;;;;;7.02;90.69;97865.59;6232553;28;20233;-42
2022/10/21 07:24:09;;;;;;;7.73;5.77;;;;;;;7.07;90.51;97870.56;6206982;28;20255;-42
2022/10/21 07:27:11;;;;;;;7.87;5.53;;;;;;;7.13;90.41;97862.28;6229167;28;20583;-41
2022/10/21 07:30:13;;;;;;;6.67;5.67;;;;;;;7.17;90.08;97861.16;6232375;28;20624;-41
2022/10/21 07:33:15;;;;;;;8.77;5.73;;;;;;;7.19;90.25;97859.25;6231605;28;20216;-41
2022/10/21 07:36:20;;;;;;;6.90;5.37;;;;;;;7.23;90.20;97860.75;6231529;28;20234;-41
2022/10/21 07:39:25;;;;;;;6.73;4.90;;;;;;;7.30;90.07;97872.53;6231850;28;20251;-41
2022/10/21 07:42:27;;;;;;;8.53;5.50;;;;;;;7.39;89.96;97863.22;6231588;28;20769;-41
2022/10/21 07:45:29;;;;;;;7.07;5.77;;;;;;;7.52;89.44;97864.13;6231662;28;20316;-42
2022/10/21 07:48:31;;;;;;;10.70;5.97;;;;;;;7.69;89.58;97865.63;6231260;28;20234;-41
2022/10/21 07:51:33;;;;;;;7.27;6.30;;;;;;;7.87;89.26;97855.72;6231074;28;20231;-42
2022/10/21 07:54:35;;;;;;;6.97;6.20;;;;;;;8.04;88.22;97856.28;6231452;28;20342;-42
2022/10/21 07:57:38;;;;;;;9.40;6.60;;;;;;;8.23;87.14;97860.28;6230681;28;20322;-42
2022/10/21 08:00:42;;;;;;;5.53;4.97;;;;;;;8.43;86.00;97862.44;6219836;28;20249;-42
2022/10/21 08:03:45;;;;;;;9.57;7.77;;;;;;;8.56;85.48;97860.66;6230689;28;20343;-41
2022/10/21 08:06:48;;;;;;;8.03;6.50;;;;;;;8.67;84.72;97860.75;6231694;28;20229;-41
2022/10/21 08:09:50;;;;;;;9.17;7.00;;;;;;;8.91;83.40;97850.25;6230130;28;20227;-41
2022/10/21 08:12:52;;;;;;;9.50;7.10;;;;;;;9.07;82.49;97834.25;6229828;28;20265;-41
2022/10/21 08:15:55;;;;;;;9.00;7.37;;;;;;;9.27;81.10;97828.38;6231355;28;20242;-41
2022/10/21 08:19:02;;;;;;;9.83;7.30;;;;;;;9.58;79.62;97825.16;6230372;28;20236;-41
2022/10/21 08:22:05;;;;;;;10.37;7.90;;;;;;;9.71;77.98;97827.72;6228465;28;20243;-42
2022/10/21 08:25:07;;;;;;;13.43;8.23;;;;;;;9.77;77.18;97826.44;6230566;28;20235;-41
2022/10/21 08:28:09;;;;;;;11.03;7.67;;;;;;;9.88;76.39;97827.28;6230995;28;20239;-41
2022/10/21 08:31:14;;;;;;;9.47;6.53;;;;;;;10.29;75.43;97823.34;6230986;28;20732;-41
2022/10/21 08:34:16;;;;;;;8.47;6.63;;;;;;;10.47;74.23;97821.13;6230153;28;20226;-41
2022/10/21 08:37:18;;;;;;;11.50;7.20;;;;;;;10.76;72.51;97830.22;6230190;28;20236;-41
2022/10/21 08:40:30;;;;;;;11.37;7.50;;;;;;;10.87;72.04;97838.16;6230088;28;20242;-41
2022/10/21 08:43:34;;;;;;;7.17;6.40;;;;;;;10.76;71.60;97837.31;6229952;28;20256;-41
2022/10/21 08:46:44;;;;;;;7.87;6.90;;;;;;;10.76;70.93;97832.03;6230782;28;20244;-42
2022/10/21 08:50:09;;;;;;;10.37;6.43;;;;;;;10.71;71.00;97835.00;6230325;28;20645;-41
2022/10/21 08:53:26;;;;;;;11.27;7.67;;;;;;;10.69;70.95;97848.31;6230073;28;20274;-41
2022/10/21 08:56:30;;;;;;;12.47;6.70;;;;;;;10.76;71.30;97856.63;6229930;28;20706;-41
2022/10/21 08:59:32;;;;;;;7.17;5.73;;;;;;;10.90;71.42;97869.56;6229624;28;20274;-41
2022/10/21 09:02:47;;;;;;;8.13;6.07;;;;;;;11.03;71.23;97874.72;6228625;28;20230;-41
2022/10/21 09:06:12;;;;;;;8.27;6.43;;;;;;;11.13;70.52;97856.34;6229991;28;20268;-41
2022/10/21 09:09:14;;;;;;;9.27;6.73;;;;;;;11.13;70.28;97829.94;6229256;28;20715;-41
2022/10/21 09:12:40;;;;;;;7.07;5.60;;;;;;;11.22;70.42;97814.19;6229106;28;20312;-41
2022/10/21 09:16:08;;;;;;;7.70;6.23;;;;;;;11.39;68.01;97815.47;6228062;28;20232;-41
2022/10/21 09:19:13;;;;;;;7.37;5.70;;;;;;;11.40;68.03;97809.22;6229406;28;20366;-41
2022/10/21 09:22:33;;;;;;;7.80;5.70;;;;;;;11.52;67.62;97794.16;6228730;28;20235;-41
2022/10/21 09:25:51;;;;;;;7.03;4.80;;;;;;;11.78;100.00;79326.22;6232322;28;20733;-41
2022/10/21 09:28:53;;;;;;;7.97;5.90;;;;;;;11.97;66.24;97787.75;6229012;28;20231;-41
2022/10/21 09:32:10;;;;;;;7.13;5.70;;;;;;;12.02;65.69;97782.88;6229900;28;20334;-41
2022/10/21 09:35:34;;;;;;;8.20;6.17;;;;;;;11.72;64.61;97762.47;6230122;28;20276;-41
2022/10/21 09:38:47;;;;;;;9.77;6.00;;;;;;;11.64;66.17;97772.00;6229797;28;20259;-41
2022/10/21 09:41:55;;;;;;;10.17;6.30;;;;;;;11.61;65.72;97757.22;6230171;28;20318;-41
2022/10/21 09:45:00;;;;;;;8.13;5.53;;;;;;;11.64;66.37;97759.63;6227365;28;20640;-41
2022/10/21 09:48:05;;;;;;;9.50;5.60;;;;;;;11.67;65.49;97758.53;6229116;28;20233;-41
2022/10/21 09:51:19;;;;;;;10.20;6.50;;;;;;;-144.22;100.00;60274.75;6228699;28;20294;-41
2022/10/21 09:54:25;;;;;;;8.13;5.27;;;;;;;-144.22;100.00;60274.75;6228783;28;20307;-41
2022/10/21 09:57:55;;;;;;;8.73;5.93;;;;;;;16.55;100.00;60274.75;6228855;28;20232;-41
2022/10/21 10:00:57;;;;;;;7.60;5.93;;;;;;;-144.22;100.00;60274.75;6229183;28;20700;-41
2022/10/21 10:04:27;;;;;;;8.33;6.03;;;;;;;-144.22;100.00;60274.75;6228658;28;20230;-41
2022/10/21 10:07:34;;;;;;;7.17;5.53;;;;;;;-144.22;100.00;60274.75;6228150;28;20227;-41
2022/10/21 10:10:36;;;;;;;8.90;6.17;;;;;;;11.71;63.50;97760.78;6230030;28;20351;-41
2022/10/21 10:13:50;;;;;;;6.70;5.57;;;;;;;11.58;64.01;97756.66;6232823;28;20281;-41
2022/10/21 10:16:53;;;;;;;6.97;5.23;;;;;;;11.70;63.26;97739.75;6233550;28;20709;-41
2022/10/21 10:20:04;;;;;;;8.00;4.83;;;;;;;11.93;63.81;97730.75;6232222;28;20301;-41
2022/10/21 10:23:08;;;;;;;10.00;5.17;;;;;;;-144.22;100.00;60274.75;6233876;28;20242;-41
2022/10/21 10:26:19;;;;;;;4.87;4.33;;;;;;;-144.22;100.00;60274.75;6233035;28;20264;-41
2022/10/21 10:29:27;;;;;;;6.63;5.10;;;;;;;-144.22;100.00;60274.75;6232746;28;20777;-41
2022/10/21 10:32:32;;;;;;;8.17;5.10;;;;;;;-144.22;100.00;60274.75;6233106;28;20300;-41
2022/10/21 10:35:37;;;;;;;6.93;4.50;;;;;;;-144.22;100.00;60274.75;6232147;28;20630;-41
2022/10/21 10:38:52;;;;;;;9.37;5.23;;;;;;;-144.22;100.00;60274.75;6230206;28;20595;-41
2022/10/21 10:41:55;;;;;;;7.63;5.30;;;;;;;-144.22;100.00;60274.75;6232433;28;20333;-41
2022/10/21 10:45:01;;;;;;;7.17;4.57;;;;;;;-144.22;100.00;60274.75;6232095;28;20229;-41
2022/10/21 10:48:05;;;;;;;5.67;4.27;;;;;;;-144.22;100.00;60274.75;6232331;28;20243;-41
2022/10/21 10:51:31;;;;;;;8.93;5.20;;;;;;;12.35;100.00;79399.47;6233084;28;20230;-41
2022/10/21 10:54:34;;;;;;;8.20;4.47;;;;;;;-144.22;100.00;60274.75;6231600;28;20318;-41
2022/10/21 10:57:39;;;;;;;6.27;4.13;;;;;;;-144.22;100.00;60274.75;6232605;28;20231;-41
2022/10/21 11:01:05;;;;;;;9.07;4.43;;;;;;;-144.22;100.00;60274.75;6231246;28;20701;-41
2022/10/21 11:04:17;;;;;;;6.33;4.33;;;;;;;12.53;100.00;79424.81;6226631;28;20248;-41
2022/10/21 11:07:43;;;;;;;7.00;4.93;;;;;;;-144.22;100.00;60274.75;6220413;28;20239;-41
2022/10/21 11:10:48;;;;;;;6.33;4.70;;;;;;;-144.22;100.00;60274.75;6211784;28;20243;-41
2022/10/21 11:13:52;;;;;;;7.27;4.67;;;;;;;-144.22;100.00;60274.75;6219525;28;20669;-41
2022/10/21 11:16:59;;;;;;;8.87;4.90;;;;;;;13.33;100.00;60274.75;6220011;28;20243;-41
2022/10/21 11:20:37;;;;;;;8.93;5.23;;;;;;;-144.22;100.00;60274.75;6219596;28;20235;-41
2022/10/21 11:23:48;;;;;;;7.17;5.00;;;;;;;-144.22;100.00;60274.75;6218916;28;20293;-41
2022/10/21 11:27:12;;;;;;;4.97;4.43;;;;;;;-144.22;100.00;60274.75;6219322;28;20711;-41
2022/10/21 11:30:22;;;;;;;5.47;4.87;;;;;;;13.21;100.00;60274.75;6219196;28;20266;-41
2022/10/21 11:33:42;;;;;;;4.73;3.77;;;;;;;-144.22;100.00;60274.75;6219079;28;20246;-41
2022/10/21 11:36:57;;;;;;;8.50;5.47;;;;;;;-144.22;100.00;60274.75;6220195;28;20648;-41
2022/10/21 11:40:12;;;;;;;8.10;5.27;;;;;;;14.03;100.00;60274.75;6220217;28;20239;-41
2022/10/21 11:43:29;;;;;;;8.30;4.90;;;;;;;-144.22;100.00;60274.75;6218454;28;20715;-41
2022/10/21 11:46:58;;;;;;;9.23;5.40;;;;;;;-144.22;100.00;60274.75;6217956;28;20240;-41
2022/10/21 11:50:41;;;;;;;7.07;5.27;;;;;;;13.49;100.00;60274.75;6200815;28;20239;-42
2022/10/21 11:53:42;;;;;;;9.07;6.00;;;;;;;-144.22;100.00;60274.75;6217383;28;20618;-41
2022/10/21 11:57:00;;;;;;;9.63;5.47;;;;;;;-144.22;100.00;60274.75;6206270;28;20557;-42
2022/10/21 12:00:05;;;;;;;6.07;4.83;;;;;;;13.40;100.00;60274.75;6205870;28;20313;-41
2022/10/21 12:03:40;;;;;;;8.07;5.43;;;;;;;-144.22;100.00;60274.75;6207490;28;20634;-42
2022/10/21 12:06:50;;;;;;;7.03;5.13;;;;;;;-144.22;100.00;60274.75;6206172;28;20232;-41
2022/10/21 12:09:55;;;;;;;6.33;4.97;;;;;;;-144.22;100.00;60274.75;6208097;28;20822;-41
2022/10/21 12:13:22;;;;;;;7.30;5.30;;;;;;;-144.22;100.00;60274.75;6188798;28;20259;-41
2022/10/21 12:16:28;;;;;;;7.73;5.30;;;;;;;-144.22;100.00;60274.75;6206245;28;20654;-41
2022/10/21 12:19:30;;;;;;;5.90;4.80;;;;;;;-144.22;100.00;60274.75;6206893;28;20260;-42
2022/10/21 12:22:33;;;;;;;7.17;4.80;;;;;;;-144.22;100.00;60274.75;6206886;28;20270;-41
2022/10/21 12:26:16;;;;;;;6.63;5.03;;;;;;;-144.22;100.00;60274.75;6206542;28;20273;-42
2022/10/21 12:29:41;;;;;;;6.67;4.40;;;;;;;-144.22;100.00;60274.75;6202975;28;20258;-41
2022/10/21 12:33:12;;;;;;;5.87;4.90;;;;;;;-144.22;100.00;60274.75;6230028;28;20240;-41
2022/10/21 12:36:23;;;;;;;5.97;4.53;;;;;;;13.57;57.25;97617.22;6200462;28;20215;-41
2022/10/21 12:39:31;;;;;;;7.80;5.00;;;;;;;12.82;58.31;97618.78;6230247;28;20234;-41
2022/10/21 12:42:33;;;;;;;8.97;4.53;;;;;;;12.75;59.52;97624.78;6229496;28;20765;-41
2022/10/21 12:45:37;;;;;;;10.80;5.17;;;;;;;12.70;60.13;97624.34;6229863;28;20227;-41
2022/10/21 12:48:44;;;;;;;5.07;4.50;;;;;;;12.62;59.73;97622.38;6229840;28;20234;-41
2022/10/21 12:51:51;;;;;;;6.10;5.03;;;;;;;12.72;59.03;97603.84;6230455;28;20345;-42
2022/10/21 12:54:58;;;;;;;7.60;5.00;;;;;;;-144.22;100.00;60274.75;6229092;28;20751;-41
2022/10/21 12:58:04;;;;;;;7.37;5.03;;;;;;;-144.22;100.00;60274.75;6231125;28;20246;-41
2022/10/21 13:01:32;;;;;;;6.17;4.60;;;;;;;-144.22;100.00;60274.75;6229248;28;20318;-42
2022/10/21 13:04:34;;;;;;;7.07;4.60;;;;;;;-144.22;100.00;60274.75;6230515;28;20258;-41
2022/10/21 13:07:37;;;;;;;5.07;4.40;;;;;;;-144.22;100.00;60274.75;6229195;28;20240;-41
2022/10/21 13:10:39;;;;;;;5.77;4.23;;;;;;;-144.22;100.00;60274.75;6229458;28;20245;-41
2022/10/21 13:13:46;;;;;;;5.73;4.60;;;;;;;-144.22;100.00;60274.75;6228945;28;20239;-41
2022/10/21 13:16:48;;;;;;;6.23;4.50;;;;;;;15.21;100.00;60274.75;6229127;28;20574;-41
2022/10/21 13:19:52;;;;;;;5.17;4.63;;;;;;;-144.22;100.00;60274.75;6229696;28;20232;-41
2022/10/21 13:23:34;;;;;;;5.57;4.00;;;;;;;21.74;100.00;60274.75;6228955;28;20247;-41
2022/10/21 13:26:47;;;;;;;7.60;4.97;;;;;;;-144.22;100.00;60274.75;6228650;28;20496;-40
2022/10/21 13:29:50;;;;;;;6.20;4.87;;;;;;;14.31;55.31;97564.94;6229821;28;20378;-41
2022/10/21 13:33:01;;;;;;;9.47;5.30;;;;;;;13.90;56.19;97566.28;6204943;28;20236;-41
2022/10/21 13:36:13;;;;;;;8.37;4.70;;;;;;;13.65;57.28;97577.56;6226647;28;20583;-42
2022/10/21 13:39:26;;;;;;;6.17;5.30;;;;;;;13.45;58.09;97583.91;6228973;28;20341;-40
2022/10/21 13:42:35;;;;;;;4.93;4.40;;;;;;;13.37;58.99;97574.03;6227835;28;20723;-40
2022/10/21 13:45:50;;;;;;;11.10;5.93;;;;;;;13.39;59.08;97571.19;6220408;28;20243;-40
2022/10/21 13:48:52;;;;;;;7.00;5.50;;;;;;;13.39;58.93;97564.09;6230660;28;20219;-39
2022/10/21 13:51:54;;;;;;;5.33;4.60;;;;;;;13.40;59.22;97573.72;6224832;28;20729;-39
2022/10/21 13:54:59;;;;;;;5.83;4.87;;;;;;;13.37;60.54;97566.06;6228137;28;20782;-40
2022/10/21 13:58:01;;;;;;;5.80;5.30;;;;;;;13.11;60.50;97580.84;6228426;28;20228;-39
2022/10/21 14:01:07;;;;;;;6.97;5.80;;;;;;;13.03;60.84;97583.38;6227825;28;20258;-39
2022/10/21 14:04:13;;;;;;;8.17;5.90;;;;;;;13.02;61.30;97594.94;6236140;28;20227;-40
2022/10/21 14:07:18;;;;;;;8.50;6.37;;;;;;;12.93;61.98;97599.28;6229714;28;20628;-40
2022/10/21 14:10:21;;;;;;;6.10;4.97;;;;;;;12.88;62.08;97617.38;6229902;28;20228;-40
2022/10/21 14:13:27;;;;;;;6.37;4.70;;;;;;;12.91;62.34;97609.16;6226787;28;20236;-40
2022/10/21 14:16:36;;;;;;;7.00;5.87;;;;;;;12.98;62.16;97604.16;6227795;28;20307;-40
2022/10/21 14:19:38;;;;;;;10.40;6.00;;;;;;;12.88;61.49;97594.38;6224903;28;20327;-39
2022/10/21 14:22:40;;;;;;;6.27;5.40;;;;;;;12.76;62.35;97592.88;6225671;28;20238;-40
2022/10/21 14:25:43;;;;;;;6.40;5.00;;;;;;;12.76;62.75;97600.81;6230881;28;20239;-40
2022/10/21 14:28:48;;;;;;;9.17;5.40;;;;;;;12.73;63.11;97594.94;6232427;28;20318;-40
2022/10/21 14:31:50;;;;;;;8.57;5.07;;;;;;;12.70;63.20;97603.16;6230182;28;20847;-40
2022/10/21 14:35:10;;;;;;;6.00;5.30;;;;;;;12.71;63.44;97602.19;6228870;28;20315;-39
2022/10/21 14:38:28;;;;;;;6.37;5.10;;;;;;;12.63;64.36;97600.22;6227304;28;20259;-40
2022/10/21 14:41:36;;;;;;;9.90;5.77;;;;;;;12.43;64.93;97598.53;6229843;28;20229;-40
2022/10/21 14:44:41;;;;;;;7.70;5.80;;;;;;;12.26;65.01;97593.91;6226979;28;20228;-40